sensor_id;sensor_type;location;lat;lon;timestamp;pressure;altitude;pressure_sealevel;temperature;humidity
9899;BME280;4988;49.238;6.698;2023-04-30T00:01:07;99509.91;;;11.15;93.22
9899;BME280;4988;49.238;6.698;2023-04-30T00:03:32;99511.78;;;11.13;93.26
9899;BME280;4988;49.238;6.698;2023-04-30T00:05:57;99514.50;;;11.11;93.65
9899;BME280;4988;49.238;6.698;2023-04-30T00:08:22;99508.03;;;11.17;93.17
9899;BME280;4988;49.238;6.698;2023-04-30T00:10:48;99510.78;;;11.15;93.65
9899;BME280;4988;49.238;6.698;2023-04-30T00:13:13;99500.97;;;11.16;93.15
9899;BME280;4988;49.238;6.698;2023-04-30T00:15:39;99508.19;;;11.14;93.67
9899;BME280;4988;49.238;6.698;2023-04-30T00:18:05;99504.56;;;11.15;94.06
9899;BME280;4988;49.238;6.698;2023-04-30T00:20:31;99508.19;;;11.14;93.58
9899;BME280;4988;49.238;6.698;2023-04-30T00:22:58;99510.53;;;11.21;93.52
9899;BME280;4988;49.238;6.698;2023-04-30T00:25:24;99509.44;;;11.25;93.25
9899;BME280;4988;49.238;6.698;2023-04-30T00:27:49;99507.84;;;11.21;93.52
9899;BME280;4988;49.238;6.698;2023-04-30T00:30:14;99500.97;;;11.16;93.17
9899;BME280;4988;49.238;6.698;2023-04-30T00:32:40;99507.94;;;11.20;93.13
9899;BME280;4988;49.238;6.698;2023-04-30T00:35:05;99499.72;;;11.24;93.42
9899;BME280;4988;49.238;6.698;2023-04-30T00:37:31;99495.13;;;11.28;93.04
9899;BME280;4988;49.238;6.698;2023-04-30T00:39:56;99505.03;;;11.24;92.99
9899;BME280;4988;49.238;6.698;2023-04-30T00:42:22;99510.63;;;11.18;93.51
9899;BME280;4988;49.238;6.698;2023-04-30T00:44:47;99501.59;;;11.22;93.11
9899;BME280;4988;49.238;6.698;2023-04-30T00:47:12;99499.78;;;11.23;93.37
9899;BME280;4988;49.238;6.698;2023-04-30T00:49:37;99498.19;;;11.19;93.64
9899;BME280;4988;49.238;6.698;2023-04-30T00:52:03;99504.56;;;11.15;93.74
9899;BME280;4988;49.238;6.698;2023-04-30T00:54:29;99500.13;;;11.15;93.63
9899;BME280;4988;49.238;6.698;2023-04-30T00:56:54;99498.66;;;11.08;94.01
9899;BME280;4988;49.238;6.698;2023-04-30T00:59:20;99494.31;;;11.05;94.24
9899;BME280;4988;49.238;6.698;2023-04-30T01:01:46;99498.25;;;10.97;94.55
9899;BME280;4988;49.238;6.698;2023-04-30T01:04:11;99495.66;;;10.95;94.64
9899;BME280;4988;49.238;6.698;2023-04-30T01:06:36;99498.31;;;10.95;94.66
9899;BME280;4988;49.238;6.698;2023-04-30T01:09:02;99500.97;;;10.95;94.49
9899;BME280;4988;49.238;6.698;2023-04-30T01:14:12;99497.81;;;11.07;94.50
9899;BME280;4988;49.238;6.698;2023-04-30T01:17:04;99492.59;;;11.04;94.51
9899;BME280;4988;49.238;6.698;2023-04-30T01:22:09;99492.00;;;10.98;94.28
9899;BME280;4988;49.238;6.698;2023-04-30T01:30:22;99495.59;;;10.97;95.07
9899;BME280;4988;49.238;6.698;2023-04-30T01:32:49;99488.50;;;10.96;95.30
9899;BME280;4988;49.238;6.698;2023-04-30T01:35:14;99491.28;;;10.92;95.80
9899;BME280;4988;49.238;6.698;2023-04-30T01:38:06;99487.59;;;10.97;95.14
9899;BME280;4988;49.238;6.698;2023-04-30T01:44:00;99500.09;;;10.94;95.61
9899;BME280;4988;49.238;6.698;2023-04-30T01:46:30;99493.91;;;10.94;95.43
9899;BME280;4988;49.238;6.698;2023-04-30T01:51:43;99495.03;;;10.88;95.45
9899;BME280;4988;49.238;6.698;2023-04-30T01:54:30;99498.53;;;10.89;95.24
9899;BME280;4988;49.238;6.698;2023-04-30T01:57:07;99506.59;;;10.87;95.81
9899;BME280;4988;49.238;6.698;2023-04-30T01:59:38;99502.28;;;10.85;95.46
9899;BME280;4988;49.238;6.698;2023-04-30T02:02:05;99501.44;;;10.84;95.94
9899;BME280;4988;49.238;6.698;2023-04-30T02:04:31;99495.94;;;10.87;95.94
9899;BME280;4988;49.238;6.698;2023-04-30T02:06:57;99487.22;;;10.84;94.88
9899;BME280;4988;49.238;6.698;2023-04-30T02:09:23;99488.47;;;10.75;96.26
9899;BME280;4988;49.238;6.698;2023-04-30T02:11:48;99486.44;;;10.82;96.28
9899;BME280;4988;49.238;6.698;2023-04-30T02:14:14;99493.72;;;10.76;96.02
9899;BME280;4988;49.238;6.698;2023-04-30T02:16:39;99494.13;;;10.67;96.27
9899;BME280;4988;49.238;6.698;2023-04-30T02:19:04;99488.91;;;10.64;96.24
9899;BME280;4988;49.238;6.698;2023-04-30T02:21:29;99488.16;;;10.60;96.29
9899;BME280;4988;49.238;6.698;2023-04-30T02:23:55;99481.06;;;10.61;96.26
9899;BME280;4988;49.238;6.698;2023-04-30T02:26:21;99485.81;;;10.53;96.89
9899;BME280;4988;49.238;6.698;2023-04-30T02:28:46;99488.16;;;10.60;96.59
9899;BME280;4988;49.238;6.698;2023-04-30T02:31:11;99488.16;;;10.60;97.04
9899;BME280;4988;49.238;6.698;2023-04-30T02:33:37;99485.31;;;10.65;96.91
9899;BME280;4988;49.238;6.698;2023-04-30T02:36:02;99484.03;;;10.75;96.19
9899;BME280;4988;49.238;6.698;2023-04-30T02:38:27;99486.72;;;10.74;95.38
9899;BME280;4988;49.238;6.698;2023-04-30T02:40:53;99485.00;;;10.73;95.83
9899;BME280;4988;49.238;6.698;2023-04-30T02:43:18;99482.47;;;10.70;95.43
9899;BME280;4988;49.238;6.698;2023-04-30T02:45:44;99479.00;;;10.68;95.68
9899;BME280;4988;49.238;6.698;2023-04-30T02:48:09;99477.66;;;10.57;95.71
9899;BME280;4988;49.238;6.698;2023-04-30T02:50:34;99471.69;;;10.51;96.13
9899;BME280;4988;49.238;6.698;2023-04-30T02:53:00;99471.69;;;10.51;96.28
9899;BME280;4988;49.238;6.698;2023-04-30T02:55:25;99476.91;;;10.54;96.53
9899;BME280;4988;49.238;6.698;2023-04-30T02:57:50;99470.72;;;10.53;96.30
9899;BME280;4988;49.238;6.698;2023-04-30T03:00:16;99463.34;;;10.60;96.11
9899;BME280;4988;49.238;6.698;2023-04-30T03:02:42;99468.06;;;10.53;95.46
9899;BME280;4988;49.238;6.698;2023-04-30T03:05:07;99469.28;;;10.67;95.68
9899;BME280;4988;49.238;6.698;2023-04-30T03:07:32;99472.19;;;10.60;95.26
9899;BME280;4988;49.238;6.698;2023-04-30T03:09:58;99476.56;;;10.63;95.19
9899;BME280;4988;49.238;6.698;2023-04-30T03:12:23;99471.22;;;10.63;94.93
9899;BME280;4988;49.238;6.698;2023-04-30T03:14:48;99473.81;;;10.65;95.03
9899;BME280;4988;49.238;6.698;2023-04-30T03:17:14;99465.19;;;10.58;95.24
9899;BME280;4988;49.238;6.698;2023-04-30T03:19:39;99462.50;;;10.59;95.15
9899;BME280;4988;49.238;6.698;2023-04-30T03:22:04;99465.03;;;10.62;95.39
9899;BME280;4988;49.238;6.698;2023-04-30T03:24:29;99463.28;;;10.61;95.26
9899;BME280;4988;49.238;6.698;2023-04-30T03:26:55;99468.56;;;10.63;95.14
9899;BME280;4988;49.238;6.698;2023-04-30T03:29:20;99463.41;;;10.58;94.71
9899;BME280;4988;49.238;6.698;2023-04-30T03:31:46;99462.34;;;10.62;94.42
9899;BME280;4988;49.238;6.698;2023-04-30T03:34:11;99461.78;;;10.54;94.79
9899;BME280;4988;49.238;6.698;2023-04-30T03:36:36;99462.78;;;10.52;94.40
9899;BME280;4988;49.238;6.698;2023-04-30T03:39:03;99457.44;;;10.53;94.60
9899;BME280;4988;49.238;6.698;2023-04-30T03:41:29;99460.00;;;10.55;94.72
9899;BME280;4988;49.238;6.698;2023-04-30T03:43:54;99467.06;;;10.56;94.48
9899;BME280;4988;49.238;6.698;2023-04-30T03:46:20;99459.94;;;10.56;94.78
9899;BME280;4988;49.238;6.698;2023-04-30T03:48:45;99457.03;;;10.62;94.08
9899;BME280;4988;49.238;6.698;2023-04-30T03:51:11;99458.09;;;10.58;94.20
9899;BME280;4988;49.238;6.698;2023-04-30T03:53:36;99452.13;;;10.52;94.41
9899;BME280;4988;49.238;6.698;2023-04-30T03:56:02;99455.00;;;10.47;94.51
9899;BME280;4988;49.238;6.698;2023-04-30T03:58:28;99459.59;;;10.43;94.48
9899;BME280;4988;49.238;6.698;2023-04-30T04:00:53;99465.63;;;10.25;94.87
9899;BME280;4988;49.238;6.698;2023-04-30T04:03:19;99461.16;;;10.25;95.26
9899;BME280;4988;49.238;6.698;2023-04-30T04:05:44;99456.56;;;10.29;95.65
9899;BME280;4988;49.238;6.698;2023-04-30T04:08:10;99463.81;;;10.25;95.72
9899;BME280;4988;49.238;6.698;2023-04-30T04:10:35;99457.81;;;10.20;96.21
9899;BME280;4988;49.238;6.698;2023-04-30T04:13:00;99466.47;;;10.25;95.54
9899;BME280;4988;49.238;6.698;2023-04-30T04:15:26;99464.13;;;10.18;95.43
9899;BME280;4988;49.238;6.698;2023-04-30T04:17:51;99464.13;;;10.18;96.30
9899;BME280;4988;49.238;6.698;2023-04-30T04:20:16;99464.00;;;10.21;96.31
9899;BME280;4988;49.238;6.698;2023-04-30T04:22:42;99466.34;;;10.28;95.60
9899;BME280;4988;49.238;6.698;2023-04-30T04:25:08;99462.97;;;10.25;95.87
9899;BME280;4988;49.238;6.698;2023-04-30T04:27:34;99467.22;;;10.29;95.32
9899;BME280;4988;49.238;6.698;2023-04-30T04:30:01;99457.56;;;10.26;95.53
9899;BME280;4988;49.238;6.698;2023-04-30T04:32:26;99465.78;;;10.20;95.97
9899;BME280;4988;49.238;6.698;2023-04-30T04:34:52;99469.94;;;10.27;95.48
9899;BME280;4988;49.238;6.698;2023-04-30T04:37:18;99464.50;;;10.30;95.23
9899;BME280;4988;49.238;6.698;2023-04-30T04:39:44;99474.22;;;10.32;95.42
9899;BME280;4988;49.238;6.698;2023-04-30T04:42:10;99469.94;;;10.27;95.19
9899;BME280;4988;49.238;6.698;2023-04-30T04:44:36;99472.47;;;10.30;95.25
9899;BME280;4988;49.238;6.698;2023-04-30T04:47:02;99470.00;;;10.26;95.39
9899;BME280;4988;49.238;6.698;2023-04-30T04:49:28;99469.13;;;10.25;95.31
9899;BME280;4988;49.238;6.698;2023-04-30T04:51:53;99468.22;;;10.26;95.55
9899;BME280;4988;49.238;6.698;2023-04-30T04:54:19;99472.91;;;10.20;95.62
9899;BME280;4988;49.238;6.698;2023-04-30T04:56:45;99468.38;;;10.22;95.76
9899;BME280;4988;49.238;6.698;2023-04-30T04:59:11;99470.72;;;10.29;95.34
9899;BME280;4988;49.238;6.698;2023-04-30T05:01:36;99475.81;;;10.36;94.95
9899;BME280;4988;49.238;6.698;2023-04-30T05:04:01;99477.34;;;10.19;95.16
9899;BME280;4988;49.238;6.698;2023-04-30T05:06:27;99482.69;;;10.19;95.48
9899;BME280;4988;49.238;6.698;2023-04-30T05:08:52;99478.97;;;10.23;96.07
9899;BME280;4988;49.238;6.698;2023-04-30T05:11:18;99485.78;;;10.30;95.33
9899;BME280;4988;49.238;6.698;2023-04-30T05:13:43;99477.88;;;10.29;95.38
9899;BME280;4988;49.238;6.698;2023-04-30T05:16:08;99478.69;;;10.31;95.97
9899;BME280;4988;49.238;6.698;2023-04-30T05:18:33;99477.69;;;10.34;95.37
9899;BME280;4988;49.238;6.698;2023-04-30T05:20:59;99476.31;;;10.23;95.03
9899;BME280;4988;49.238;6.698;2023-04-30T05:23:24;99475.66;;;10.40;95.54
9899;BME280;4988;49.238;6.698;2023-04-30T05:25:53;99476.34;;;10.45;95.05
9899;BME280;4988;49.238;6.698;2023-04-30T05:28:19;99469.09;;;10.49;94.85
9899;BME280;4988;49.238;6.698;2023-04-30T05:30:44;99476.91;;;10.54;94.44
9899;BME280;4988;49.238;6.698;2023-04-30T05:33:09;99473.69;;;10.68;94.04
9899;BME280;4988;49.238;6.698;2023-04-30T05:35:35;99479.56;;;10.76;93.82
9899;BME280;4988;49.238;6.698;2023-04-30T05:38:01;99471.50;;;10.77;93.46
9899;BME280;4988;49.238;6.698;2023-04-30T05:40:27;99478.38;;;10.83;93.01
9899;BME280;4988;49.238;6.698;2023-04-30T05:42:53;99481.44;;;10.94;93.04
9899;BME280;4988;49.238;6.698;2023-04-30T05:45:18;99473.53;;;10.93;92.33
9899;BME280;4988;49.238;6.698;2023-04-30T05:47:44;99479.59;;;10.97;91.69
9899;BME280;4988;49.238;6.698;2023-04-30T05:50:09;99476.69;;;11.03;92.30
9899;BME280;4988;49.238;6.698;2023-04-30T05:52:35;99470.09;;;11.12;91.47
9899;BME280;4988;49.238;6.698;2023-04-30T05:55:00;99476.25;;;11.12;91.28
9899;BME280;4988;49.238;6.698;2023-04-30T05:57:25;99477.25;;;11.09;91.32
9899;BME280;4988;49.238;6.698;2023-04-30T05:59:51;99475.59;;;11.07;91.54
9899;BME280;4988;49.238;6.698;2023-04-30T06:02:16;99478.81;;;11.15;91.40
9899;BME280;4988;49.238;6.698;2023-04-30T06:04:41;99469.75;;;11.19;90.51
9899;BME280;4988;49.238;6.698;2023-04-30T06:07:07;99478.41;;;11.24;90.19
9899;BME280;4988;49.238;6.698;2023-04-30T06:09:33;99472.81;;;11.31;89.92
9899;BME280;4988;49.238;6.698;2023-04-30T06:11:58;99468.44;;;11.30;89.07
9899;BME280;4988;49.238;6.698;2023-04-30T06:14:24;99473.53;;;11.34;89.45
9899;BME280;4988;49.238;6.698;2023-04-30T06:16:49;99475.06;;;11.40;88.97
9899;BME280;4988;49.238;6.698;2023-04-30T06:19:15;99465.22;;;11.42;88.81
9899;BME280;4988;49.238;6.698;2023-04-30T06:21:40;99471.94;;;11.51;88.27
9899;BME280;4988;49.238;6.698;2023-04-30T06:24:08;99475.25;;;11.56;87.96
9899;BME280;4988;49.238;6.698;2023-04-30T06:26:33;99467.25;;;11.56;87.90
9899;BME280;4988;49.238;6.698;2023-04-30T06:28:59;99471.31;;;11.65;86.97
9899;BME280;4988;49.238;6.698;2023-04-30T06:31:25;99465.50;;;11.75;87.04
9899;BME280;4988;49.238;6.698;2023-04-30T06:33:50;99463.91;;;11.90;86.49
9899;BME280;4988;49.238;6.698;2023-04-30T06:36:16;99458.84;;;12.05;84.81
9899;BME280;4988;49.238;6.698;2023-04-30T06:38:42;99458.69;;;12.08;84.95
9899;BME280;4988;49.238;6.698;2023-04-30T06:41:08;99460.13;;;12.15;84.84
9899;BME280;4988;49.238;6.698;2023-04-30T06:43:33;99454.38;;;12.25;82.97
9899;BME280;4988;49.238;6.698;2023-04-30T06:45:59;99458.59;;;12.29;83.10
9899;BME280;4988;49.238;6.698;2023-04-30T06:48:24;99463.56;;;12.36;82.49
9899;BME280;4988;49.238;6.698;2023-04-30T06:50:50;99462.50;;;12.41;82.91
9899;BME280;4988;49.238;6.698;2023-04-30T06:53:15;99451.56;;;12.45;81.67
9899;BME280;4988;49.238;6.698;2023-04-30T06:55:41;99458.63;;;12.46;80.83
9899;BME280;4988;49.238;6.698;2023-04-30T06:58:07;99461.94;;;12.51;80.09
9899;BME280;4988;49.238;6.698;2023-04-30T07:00:35;99464.00;;;12.64;79.86
9899;BME280;4988;49.238;6.698;2023-04-30T07:03:01;99460.28;;;12.68;79.40
9899;BME280;4988;49.238;6.698;2023-04-30T07:05:29;99461.38;;;12.81;79.04
9899;BME280;4988;49.238;6.698;2023-04-30T07:07:54;99467.50;;;12.83;77.98
9899;BME280;4988;49.238;6.698;2023-04-30T07:10:20;99466.25;;;12.91;78.86
9899;BME280;4988;49.238;6.698;2023-04-30T07:12:46;99453.06;;;13.05;77.25
9899;BME280;4988;49.238;6.698;2023-04-30T07:15:11;99462.81;;;13.06;76.97
9899;BME280;4988;49.238;6.698;2023-04-30T07:17:37;99461.56;;;13.13;74.74
9899;BME280;4988;49.238;6.698;2023-04-30T07:20:06;99456.34;;;13.28;74.72
9899;BME280;4988;49.238;6.698;2023-04-30T07:22:31;99453.84;;;13.42;74.00
9899;BME280;4988;49.238;6.698;2023-04-30T07:24:57;99457.47;;;13.41;72.81
9899;BME280;4988;49.238;6.698;2023-04-30T07:27:22;99460.78;;;13.46;73.70
9899;BME280;4988;49.238;6.698;2023-04-30T07:29:47;99452.84;;;13.61;73.43
9899;BME280;4988;49.238;6.698;2023-04-30T07:32:13;99459.03;;;13.79;72.78
9899;BME280;4988;49.238;6.698;2023-04-30T07:34:39;99463.22;;;13.85;71.80
9899;BME280;4988;49.238;6.698;2023-04-30T07:37:04;99459.16;;;13.93;72.16
9899;BME280;4988;49.238;6.698;2023-04-30T07:39:30;99461.84;;;14.09;69.58
9899;BME280;4988;49.238;6.698;2023-04-30T07:41:55;99457.78;;;14.18;69.59
9899;BME280;4988;49.238;6.698;2023-04-30T07:44:20;99459.53;;;14.35;67.41
9899;BME280;4988;49.238;6.698;2023-04-30T07:46:46;99463.56;;;14.42;66.49
9899;BME280;4988;49.238;6.698;2023-04-30T07:49:11;99467.13;;;14.43;65.51
9899;BME280;4988;49.238;6.698;2023-04-30T07:51:36;99457.59;;;14.37;65.77
9899;BME280;4988;49.238;6.698;2023-04-30T07:54:03;99463.66;;;14.41;65.81
9899;BME280;4988;49.238;6.698;2023-04-30T07:56:29;99455.88;;;14.36;66.63
9899;BME280;4988;49.238;6.698;2023-04-30T07:58:54;99465.88;;;14.48;67.21
9899;BME280;4988;49.238;6.698;2023-04-30T08:01:19;99459.31;;;14.54;64.95
9899;BME280;4988;49.238;6.698;2023-04-30T08:03:45;99462.09;;;14.53;65.67
9899;BME280;4988;49.238;6.698;2023-04-30T08:06:10;99465.22;;;14.61;65.40
9899;BME280;4988;49.238;6.698;2023-04-30T08:08:36;99464.69;;;14.70;65.59
9899;BME280;4988;49.238;6.698;2023-04-30T08:11:01;99467.59;;;14.82;64.30
9899;BME280;4988;49.238;6.698;2023-04-30T08:13:27;99461.88;;;14.88;64.03
9899;BME280;4988;49.238;6.698;2023-04-30T08:15:52;99458.78;;;15.10;65.34
9899;BME280;4988;49.238;6.698;2023-04-30T08:18:18;99461.88;;;15.18;63.30
9899;BME280;4988;49.238;6.698;2023-04-30T08:20:43;99464.19;;;15.24;62.75
9899;BME280;4988;49.238;6.698;2023-04-30T08:23:08;99458.47;;;15.31;61.41
9899;BME280;4988;49.238;6.698;2023-04-30T08:25:33;99460.41;;;15.43;59.99
9899;BME280;4988;49.238;6.698;2023-04-30T08:27:59;99464.59;;;15.47;57.03
9899;BME280;4988;49.238;6.698;2023-04-30T08:30:24;99468.84;;;15.51;56.74
9899;BME280;4988;49.238;6.698;2023-04-30T08:32:50;99462.06;;;15.60;56.49
9899;BME280;4988;49.238;6.698;2023-04-30T08:35:16;99463.13;;;15.72;57.12
9899;BME280;4988;49.238;6.698;2023-04-30T08:37:41;99474.72;;;15.72;56.71
9899;BME280;4988;49.238;6.698;2023-04-30T08:40:07;99468.09;;;15.64;56.37
9899;BME280;4988;49.238;6.698;2023-04-30T08:42:35;99467.72;;;15.70;57.69
9899;BME280;4988;49.238;6.698;2023-04-30T08:45:03;99477.00;;;15.79;55.33
9899;BME280;4988;49.238;6.698;2023-04-30T08:47:29;99469.81;;;15.79;55.58
9899;BME280;4988;49.238;6.698;2023-04-30T08:49:54;99471.97;;;16.03;56.80
9899;BME280;4988;49.238;6.698;2023-04-30T08:52:20;99467.13;;;16.22;53.50
9899;BME280;4988;49.238;6.698;2023-04-30T08:54:46;99467.41;;;16.32;53.05
9899;BME280;4988;49.238;6.698;2023-04-30T08:57:11;99462.78;;;16.34;53.15
9899;BME280;4988;49.238;6.698;2023-04-30T08:59:37;99469.97;;;16.48;54.51
9899;BME280;4988;49.238;6.698;2023-04-30T09:02:02;99478.75;;;16.78;56.78
9899;BME280;4988;49.238;6.698;2023-04-30T09:04:28;99480.47;;;16.93;55.93
9899;BME280;4988;49.238;6.698;2023-04-30T09:06:54;99468.06;;;16.91;54.12
9899;BME280;4988;49.238;6.698;2023-04-30T09:09:28;99471.16;;;16.84;54.61
9899;BME280;4988;49.238;6.698;2023-04-30T09:12:14;99478.03;;;16.48;54.28
9899;BME280;4988;49.238;6.698;2023-04-30T09:14:40;99468.59;;;16.14;54.85
9899;BME280;4988;49.238;6.698;2023-04-30T09:17:06;99482.59;;;15.90;56.32
9899;BME280;4988;49.238;6.698;2023-04-30T09:19:36;99489.06;;;15.71;57.14
9899;BME280;4988;49.238;6.698;2023-04-30T09:22:22;99491.66;;;15.58;58.27
9899;BME280;4988;49.238;6.698;2023-04-30T09:24:49;99481.78;;;15.59;56.75
9899;BME280;4988;49.238;6.698;2023-04-30T09:27:20;99475.25;;;15.63;58.37
9899;BME280;4988;49.238;6.698;2023-04-30T09:29:45;99472.41;;;15.95;57.30
9899;BME280;4988;49.238;6.698;2023-04-30T09:32:11;99470.00;;;16.19;56.15
9899;BME280;4988;49.238;6.698;2023-04-30T09:34:39;99468.00;;;16.23;54.03
9899;BME280;4988;49.238;6.698;2023-04-30T09:37:04;99471.06;;;16.02;54.59
9899;BME280;4988;49.238;6.698;2023-04-30T09:39:30;99478.50;;;15.84;55.86
9899;BME280;4988;49.238;6.698;2023-04-30T09:42:09;99474.41;;;15.63;56.44
9899;BME280;4988;49.238;6.698;2023-04-30T09:44:36;99479.31;;;15.56;56.92
9899;BME280;4988;49.238;6.698;2023-04-30T09:47:02;99482.75;;;15.58;56.95
9899;BME280;4988;49.238;6.698;2023-04-30T09:49:27;99484.84;;;15.53;58.27
9899;BME280;4988;49.238;6.698;2023-04-30T09:51:57;99476.91;;;15.66;55.84
9899;BME280;4988;49.238;6.698;2023-04-30T09:54:25;99478.75;;;15.80;55.34
9899;BME280;4988;49.238;6.698;2023-04-30T09:56:53;99471.41;;;15.83;54.11
9899;BME280;4988;49.238;6.698;2023-04-30T09:59:21;99476.75;;;15.83;54.47
9899;BME280;4988;49.238;6.698;2023-04-30T10:01:50;99473.19;;;15.83;53.82
9899;BME280;4988;49.238;6.698;2023-04-30T10:04:18;99471.75;;;15.77;54.95
9899;BME280;4988;49.238;6.698;2023-04-30T10:06:43;99477.97;;;15.77;55.86
9899;BME280;4988;49.238;6.698;2023-04-30T10:09:10;99468.19;;;15.62;55.26
9899;BME280;4988;49.238;6.698;2023-04-30T10:11:41;99468.56;;;15.56;57.34
9899;BME280;4988;49.238;6.698;2023-04-30T10:14:11;99466.44;;;15.47;56.03
9899;BME280;4988;49.238;6.698;2023-04-30T10:16:57;99465.28;;;15.36;57.41
9899;BME280;4988;49.238;6.698;2023-04-30T10:19:24;99460.09;;;15.33;57.87
9899;BME280;4988;49.238;6.698;2023-04-30T10:21:51;99458.59;;;15.43;57.67
9899;BME280;4988;49.238;6.698;2023-04-30T10:24:18;99451.31;;;15.60;56.72
9899;BME280;4988;49.238;6.698;2023-04-30T10:26:45;99458.50;;;15.74;55.87
9899;BME280;4988;49.238;6.698;2023-04-30T10:29:12;99452.84;;;15.79;56.07
9899;BME280;4988;49.238;6.698;2023-04-30T10:31:40;99442.31;;;15.90;55.37
9899;BME280;4988;49.238;6.698;2023-04-30T10:37:05;99445.94;;;16.03;54.86
9899;BME280;4988;49.238;6.698;2023-04-30T10:39:31;99445.00;;;16.04;54.47
9899;BME280;4988;49.238;6.698;2023-04-30T10:42:04;99436.94;;;16.04;54.71
9899;BME280;4988;49.238;6.698;2023-04-30T10:44:32;99444.59;;;16.11;55.00
9899;BME280;4988;49.238;6.698;2023-04-30T10:46:59;99434.41;;;16.16;54.34
9899;BME280;4988;49.238;6.698;2023-04-30T10:49:25;99431.63;;;16.17;54.03
9899;BME280;4988;49.238;6.698;2023-04-30T10:51:51;99427.72;;;16.08;53.47
9899;BME280;4988;49.238;6.698;2023-04-30T10:54:29;99425.00;;;16.23;55.33
9899;BME280;4988;49.238;6.698;2023-04-30T10:57:11;99426.22;;;16.32;54.63
9899;BME280;4988;49.238;6.698;2023-04-30T10:59:41;99416.91;;;16.37;54.49
9899;BME280;4988;49.238;6.698;2023-04-30T11:02:14;99415.44;;;16.46;54.50
9899;BME280;4988;49.238;6.698;2023-04-30T11:07:32;99408.00;;;16.64;53.36
9899;BME280;4988;49.238;6.698;2023-04-30T11:09:57;99411.81;;;16.60;54.36
9899;BME280;4988;49.238;6.698;2023-04-30T11:12:26;99402.25;;;16.56;54.98
9899;BME280;4988;49.238;6.698;2023-04-30T11:15:24;99404.06;;;16.55;53.34
9899;BME280;4988;49.238;6.698;2023-04-30T11:17:55;99405.88;;;16.42;53.46
9899;BME280;4988;49.238;6.698;2023-04-30T11:20:24;99395.97;;;16.43;52.70
9899;BME280;4988;49.238;6.698;2023-04-30T11:23:14;99403.06;;;16.44;53.83
9899;BME280;4988;49.238;6.698;2023-04-30T11:25:46;99401.31;;;16.57;53.49
9899;BME280;4988;49.238;6.698;2023-04-30T11:28:14;99390.56;;;16.70;54.42
9899;BME280;4988;49.238;6.698;2023-04-30T11:31:04;99388.25;;;16.91;52.33
9899;BME280;4988;49.238;6.698;2023-04-30T11:33:48;99386.22;;;16.95;52.38
9899;BME280;4988;49.238;6.698;2023-04-30T11:36:14;99391.84;;;16.92;51.32
9899;BME280;4988;49.238;6.698;2023-04-30T11:38:40;99384.66;;;16.78;51.54
9899;BME280;4988;49.238;6.698;2023-04-30T11:41:11;99385.41;;;16.67;51.88
9899;BME280;4988;49.238;6.698;2023-04-30T11:43:36;99384.13;;;16.72;52.85
9899;BME280;4988;49.238;6.698;2023-04-30T11:48:53;99387.56;;;16.62;51.99
9899;BME280;4988;49.238;6.698;2023-04-30T11:51:23;99379.69;;;16.59;52.29
9899;BME280;4988;49.238;6.698;2023-04-30T11:53:50;99378.66;;;16.47;52.52
9899;BME280;4988;49.238;6.698;2023-04-30T11:56:22;99386.66;;;16.48;52.96
9899;BME280;4988;49.238;6.698;2023-04-30T11:58:50;99378.25;;;16.53;53.17
9899;BME280;4988;49.238;6.698;2023-04-30T12:01:16;99374.75;;;16.65;53.00
9899;BME280;4988;49.238;6.698;2023-04-30T12:03:49;99381.78;;;16.81;54.28
9899;BME280;4988;49.238;6.698;2023-04-30T12:06:35;99363.31;;;16.89;51.79
9899;BME280;4988;49.238;6.698;2023-04-30T12:09:01;99357.72;;;16.92;50.37
9899;BME280;4988;49.238;6.698;2023-04-30T12:11:33;99359.38;;;17.08;50.84
9899;BME280;4988;49.238;6.698;2023-04-30T12:14:04;99365.94;;;17.16;52.02
9899;BME280;4988;49.238;6.698;2023-04-30T12:16:48;99361.19;;;17.33;50.77
9899;BME280;4988;49.238;6.698;2023-04-30T12:19:15;99359.03;;;17.51;50.26
9899;BME280;4988;49.238;6.698;2023-04-30T12:21:42;99346.72;;;17.60;48.73
9899;BME280;4988;49.238;6.698;2023-04-30T12:24:12;99355.75;;;17.72;50.16
9899;BME280;4988;49.238;6.698;2023-04-30T12:26:38;99351.28;;;17.59;49.82
9899;BME280;4988;49.238;6.698;2023-04-30T12:29:06;99348.78;;;17.56;50.15
9899;BME280;4988;49.238;6.698;2023-04-30T12:31:32;99355.38;;;17.39;49.84
9899;BME280;4988;49.238;6.698;2023-04-30T12:34:02;99354.19;;;17.43;50.69
9899;BME280;4988;49.238;6.698;2023-04-30T12:36:29;99351.59;;;17.55;51.10
9899;BME280;4988;49.238;6.698;2023-04-30T12:39:05;99352.44;;;17.55;50.68
9899;BME280;4988;49.238;6.698;2023-04-30T12:41:35;99353.41;;;17.54;49.39
9899;BME280;4988;49.238;6.698;2023-04-30T12:44:17;99356.88;;;17.43;49.66
9899;BME280;4988;49.238;6.698;2023-04-30T12:46:43;99353.75;;;17.49;50.49
9899;BME280;4988;49.238;6.698;2023-04-30T12:49:10;99355.38;;;17.52;50.04
9899;BME280;4988;49.238;6.698;2023-04-30T12:51:36;99351.47;;;17.56;50.36
9899;BME280;4988;49.238;6.698;2023-04-30T12:54:04;99347.38;;;17.63;50.01
9899;BME280;4988;49.238;6.698;2023-04-30T12:56:29;99344.78;;;17.62;50.88
9899;BME280;4988;49.238;6.698;2023-04-30T12:58:55;99352.84;;;17.75;51.55
9899;BME280;4988;49.238;6.698;2023-04-30T13:01:21;99342.88;;;17.88;49.98
9899;BME280;4988;49.238;6.698;2023-04-30T13:03:48;99336.69;;;18.12;50.58
9899;BME280;4988;49.238;6.698;2023-04-30T13:06:13;99333.16;;;18.36;49.43
9899;BME280;4988;49.238;6.698;2023-04-30T13:08:39;99340.31;;;18.48;49.53
9899;BME280;4988;49.238;6.698;2023-04-30T13:11:05;99324.09;;;18.37;47.08
9899;BME280;4988;49.238;6.698;2023-04-30T13:13:30;99326.03;;;18.35;47.49
9899;BME280;4988;49.238;6.698;2023-04-30T13:15:55;99318.63;;;18.25;47.30
9899;BME280;4988;49.238;6.698;2023-04-30T13:18:21;99322.47;;;18.34;49.08
9899;BME280;4988;49.238;6.698;2023-04-30T13:20:46;99325.09;;;18.47;47.62
9899;BME280;4988;49.238;6.698;2023-04-30T13:23:12;99324.31;;;18.33;47.55
9899;BME280;4988;49.238;6.698;2023-04-30T13:25:39;99319.22;;;18.17;48.13
9899;BME280;4988;49.238;6.698;2023-04-30T13:28:05;99319.09;;;18.19;48.10
9899;BME280;4988;49.238;6.698;2023-04-30T13:30:31;99314.09;;;18.02;46.87
9899;BME280;4988;49.238;6.698;2023-04-30T13:32:56;99311.53;;;18.00;47.06
9899;BME280;4988;49.238;6.698;2023-04-30T13:35:23;99300.31;;;17.93;49.08
9899;BME280;4988;49.238;6.698;2023-04-30T13:37:48;99302.81;;;17.96;49.11
9899;BME280;4988;49.238;6.698;2023-04-30T13:40:16;99300.69;;;17.89;49.34
9899;BME280;4988;49.238;6.698;2023-04-30T13:42:42;99293.44;;;17.89;49.63
9899;BME280;4988;49.238;6.698;2023-04-30T13:45:07;99296.81;;;17.80;48.90
9899;BME280;4988;49.238;6.698;2023-04-30T13:47:33;99295.25;;;17.64;49.33